createdAt,value
2018-12-01T00:00:24.600Z,100821.05
2018-12-01T00:02:51.541Z,100822.72
2018-12-01T00:05:18.466Z,100824.24
2018-12-01T00:07:45.430Z,100823.06
2018-12-01T00:10:12.307Z,100821.39
2018-12-01T00:12:39.227Z,100820.37
2018-12-01T00:15:09.071Z,100825.58
2018-12-01T00:17:35.980Z,100820.22
2018-12-01T00:20:03.786Z,100817.19
2018-12-01T00:22:30.687Z,100821.88
2018-12-01T00:24:57.597Z,100822.20
2018-12-01T00:27:24.531Z,100831.77
2018-12-01T00:29:51.435Z,100834.11
2018-12-01T00:32:18.363Z,100837.64
2018-12-01T00:34:45.270Z,100826.73
2018-12-01T00:37:12.154Z,100825.39
2018-12-01T00:39:39.042Z,100826.25
2018-12-01T00:42:06.054Z,100819.70
2018-12-01T00:44:34.161Z,100810.67
2018-12-01T00:47:01.670Z,100828.91
2018-12-01T00:49:30.115Z,100828.41
2018-12-01T00:51:57.130Z,100832.61
2018-12-01T00:54:24.038Z,100831.94
2018-12-01T00:56:52.918Z,100822.89
2018-12-01T00:59:20.096Z,100825.74
2018-12-01T01:01:47.107Z,100823.55
2018-12-01T01:04:14.042Z,100820.37
2018-12-01T01:06:42.352Z,100824.07
2018-12-01T01:09:09.337Z,100816.50
2018-12-01T01:11:36.240Z,100812.48
2018-12-01T01:14:03.200Z,100817.71
2018-12-01T01:16:30.098Z,100820.03
2018-12-01T01:18:57.218Z,100823.56
2018-12-01T01:21:24.238Z,100816.02
2018-12-01T01:23:51.743Z,100817.70
2018-12-01T01:26:18.658Z,100816.67
2018-12-01T01:28:46.095Z,100819.69
2018-12-01T01:31:13.074Z,100821.39
2018-12-01T01:33:40.003Z,100817.03
2018-12-01T01:36:06.934Z,100817.69
2018-12-01T01:38:33.835Z,100814.84
2018-12-01T01:41:07.252Z,100824.21
2018-12-01T01:43:34.968Z,100816.19
2018-12-01T01:46:01.893Z,100816.19
2018-12-01T01:48:28.826Z,100813.34
2018-12-01T01:50:55.759Z,100812.17
2018-12-01T01:53:22.687Z,100807.63
2018-12-01T01:55:49.628Z,100812.17
2018-12-01T01:58:16.537Z,100808.97
2018-12-01T02:00:43.462Z,100817.86
2018-12-01T02:03:10.403Z,100821.20
2018-12-01T02:05:37.344Z,100812.82
2018-12-01T02:08:04.263Z,100815.14
2018-12-01T02:10:31.186Z,100809.96
2018-12-01T02:12:58.082Z,100808.46
2018-12-01T02:15:24.992Z,100809.28
2018-12-01T02:17:51.927Z,100803.59
2018-12-01T02:20:18.870Z,100805.27
2018-12-01T02:22:45.855Z,100805.11
2018-12-01T02:25:14.566Z,100809.27
2018-12-01T02:27:41.521Z,100805.09
2018-12-01T02:30:10.516Z,100805.95
2018-12-01T02:32:37.454Z,100796.23
2018-12-01T02:35:08.082Z,100794.23
2018-12-01T02:37:35.027Z,100789.53
2018-12-01T02:40:02.063Z,100780.83
2018-12-01T02:42:28.975Z,100786.20
2018-12-01T02:45:07.625Z,100782.52
2018-12-01T02:47:34.606Z,100777.00
2018-12-01T02:50:02.177Z,100784.86
2018-12-01T02:52:29.103Z,100785.87
2018-12-01T02:54:56.006Z,100781.84
2018-12-01T02:57:22.963Z,100791.55
2018-12-01T02:59:50.213Z,100796.22
2018-12-01T03:02:18.653Z,100792.38
2018-12-01T03:04:46.825Z,100794.05
2018-12-01T03:07:14.683Z,100790.02
2018-12-01T03:09:42.764Z,100801.05
2018-12-01T03:12:10.538Z,100802.75
2018-12-01T03:14:37.927Z,100804.91
2018-12-01T03:17:04.894Z,100806.56
2018-12-01T03:19:32.386Z,100803.89
2018-12-01T03:21:59.312Z,100796.20
2018-12-01T03:24:26.247Z,100796.02
2018-12-01T03:26:53.182Z,100795.87
2018-12-01T03:29:20.106Z,100801.55
2018-12-01T03:31:47.012Z,100798.19
2018-12-01T03:34:13.933Z,100805.54
2018-12-01T03:36:40.935Z,100804.55
2018-12-01T03:39:08.850Z,100811.56
2018-12-01T03:41:36.250Z,100806.20
2018-12-01T03:44:04.335Z,100809.56
2018-12-01T03:46:31.259Z,100800.86
2018-12-01T03:48:58.222Z,100803.19
2018-12-01T03:51:25.127Z,100802.83
2018-12-01T03:53:52.039Z,100812.55
2018-12-01T03:56:18.966Z,100813.39
2018-12-01T03:58:46.003Z,100809.23
2018-12-01T04:01:13.730Z,100809.58
2018-12-01T04:03:40.650Z,100807.58
2018-12-01T04:06:07.567Z,100805.24
2018-12-01T04:08:34.775Z,100797.87
2018-12-01T04:11:01.720Z,100805.91
2018-12-01T04:13:29.262Z,100801.23
2018-12-01T04:15:56.224Z,100801.91
2018-12-01T04:18:23.198Z,100802.91
2018-12-01T04:20:50.130Z,100808.77
2018-12-01T04:23:17.050Z,100806.77
2018-12-01T04:25:43.989Z,100811.13
2018-12-01T04:28:10.895Z,100812.29
2018-12-01T04:30:37.783Z,100806.93
2018-12-01T04:33:05.004Z,100806.63
2018-12-01T04:35:31.927Z,100810.64
2018-12-01T04:37:58.819Z,100807.78
2018-12-01T04:40:25.727Z,100806.77
2018-12-01T04:42:52.611Z,100813.30
2018-12-01T04:45:19.550Z,100813.64
2018-12-01T04:47:46.457Z,100821.20
2018-12-01T04:50:14.227Z,100823.36
2018-12-01T04:52:41.249Z,100832.08
2018-12-01T04:55:10.215Z,100832.22
2018-12-01T04:57:37.098Z,100850.48
2018-12-01T05:00:05.920Z,100840.26
2018-12-01T05:02:32.817Z,100835.44
2018-12-01T05:04:59.694Z,100826.38
2018-12-01T05:07:26.580Z,100832.06
2018-12-01T05:09:53.471Z,100826.38
2018-12-01T05:12:20.378Z,100825.36
2018-12-01T05:14:47.272Z,100831.39
2018-12-01T05:17:14.162Z,100824.70
2018-12-01T05:19:41.042Z,100827.37
2018-12-01T05:22:07.970Z,100831.05
2018-12-01T05:24:34.892Z,100826.72
2018-12-01T05:27:01.796Z,100818.67
2018-12-01T05:29:28.715Z,100827.88
2018-12-01T05:31:55.634Z,100822.52
2018-12-01T05:34:22.549Z,100826.39
2018-12-01T05:36:49.459Z,100823.03
2018-12-01T05:39:16.371Z,100834.44
2018-12-01T05:41:43.319Z,100834.42
2018-12-01T05:44:10.222Z,100836.59
2018-12-01T05:46:37.150Z,100825.70
2018-12-01T05:49:04.251Z,100833.73
2018-12-01T05:51:31.166Z,100836.41
2018-12-01T05:53:58.074Z,100836.41
2018-12-01T05:56:24.979Z,100835.09
2018-12-01T05:58:51.894Z,100843.47
2018-12-01T06:01:18.824Z,100840.44
2018-12-01T06:03:45.730Z,100841.61
2018-12-01T06:06:12.625Z,100843.97
2018-12-01T06:08:39.551Z,100840.11
2018-12-01T06:11:06.451Z,100839.77
2018-12-01T06:13:33.367Z,100841.61
2018-12-01T06:16:00.298Z,100836.41
2018-12-01T06:18:27.219Z,100832.58
2018-12-01T06:20:54.120Z,100834.73
2018-12-01T06:23:21.032Z,100840.11
2018-12-01T06:25:47.971Z,100845.79
2018-12-01T06:28:14.870Z,100853.00
2018-12-01T06:30:41.750Z,100849.46
2018-12-01T06:33:08.663Z,100854.82
2018-12-01T06:35:35.559Z,100856.31
2018-12-01T06:38:02.459Z,100857.13
2018-12-01T06:40:29.355Z,100849.06
2018-12-01T06:42:56.270Z,100856.12
2018-12-01T06:45:23.166Z,100855.76
2018-12-01T06:47:50.063Z,100860.77
2018-12-01T06:50:19.662Z,100862.77
2018-12-01T06:52:46.576Z,100865.14
2018-12-01T06:55:13.810Z,100875.67
2018-12-01T06:57:41.324Z,100873.83
2018-12-01T07:00:14.227Z,100878.36
2018-12-01T07:02:41.664Z,100884.56
2018-12-01T07:05:09.622Z,100885.22
2018-12-01T07:07:36.539Z,100881.03
2018-12-01T07:10:05.922Z,100880.17
2018-12-01T07:12:32.826Z,100878.18
2018-12-01T07:14:59.729Z,100880.38
2018-12-01T07:17:26.654Z,100880.03
2018-12-01T07:19:53.543Z,100874.84
2018-12-01T07:22:20.454Z,100872.34
2018-12-01T07:24:47.370Z,100876.36
2018-12-01T07:27:14.314Z,100872.85
2018-12-01T07:29:41.216Z,100865.50
2018-12-01T07:32:08.122Z,100879.89
2018-12-01T07:34:35.049Z,100882.08
2018-12-01T07:37:01.942Z,100884.41
2018-12-01T07:39:28.886Z,100865.83
2018-12-01T07:41:55.792Z,100871.87
2018-12-01T07:44:22.725Z,100872.55
2018-12-01T07:46:49.634Z,100876.40
2018-12-01T07:49:16.559Z,100872.38
2018-12-01T07:51:43.479Z,100860.31
2018-12-01T07:54:10.393Z,100858.98
2018-12-01T07:56:37.319Z,100859.17
2018-12-01T07:59:04.730Z,100854.84
2018-12-01T08:01:31.626Z,100855.33
2018-12-01T08:03:58.546Z,100849.63
2018-12-01T08:06:25.438Z,100847.15
2018-12-01T08:08:52.360Z,100849.50
2018-12-01T08:11:19.254Z,100855.52
2018-12-01T08:13:46.186Z,100846.83
2018-12-01T08:16:13.099Z,100844.13
2018-12-01T08:18:40.014Z,100834.59
2018-12-01T08:21:06.934Z,100829.09
2018-12-01T08:23:33.834Z,100825.71
2018-12-01T08:26:00.767Z,100824.56
2018-12-01T08:28:27.659Z,100830.08
2018-12-01T08:30:54.562Z,100828.76
2018-12-01T08:33:21.442Z,100831.59
2018-12-01T08:35:48.368Z,100828.75
2018-12-01T08:38:15.258Z,100830.43
2018-12-01T08:40:42.220Z,100842.83
2018-12-01T08:43:09.123Z,100830.44
2018-12-01T08:45:36.076Z,100835.78
2018-12-01T08:48:03.011Z,100827.74
2018-12-01T08:50:29.914Z,100824.40
2018-12-01T08:52:56.822Z,100833.27
2018-12-01T08:55:24.086Z,100848.85
2018-12-01T08:57:51.671Z,100850.91
2018-12-01T09:00:23.728Z,100848.22
2018-12-01T09:02:59.922Z,100846.22
2018-12-01T09:05:26.827Z,100845.52
2018-12-01T09:07:53.716Z,100856.77
2018-12-01T09:10:20.666Z,100858.94
2018-12-01T09:12:47.551Z,100856.26
2018-12-01T09:15:14.525Z,100844.86
2018-12-01T09:17:41.421Z,100852.58
2018-12-01T09:20:10.328Z,100850.56
2018-12-01T09:22:37.605Z,100855.08
2018-12-01T09:25:06.302Z,100856.39
2018-12-01T09:27:33.195Z,100860.61
2018-12-01T09:30:00.095Z,100861.58
2018-12-01T09:32:26.999Z,100859.41
2018-12-01T09:34:53.913Z,100859.59
2018-12-01T09:37:20.801Z,100855.55
2018-12-01T09:39:47.710Z,100867.44
2018-12-01T09:42:14.607Z,100864.27
2018-12-01T09:44:41.523Z,100875.16
2018-12-01T09:47:08.431Z,100875.98
2018-12-01T09:49:35.315Z,100870.28
2018-12-01T09:52:02.224Z,100874.31
2018-12-01T09:54:29.117Z,100873.11
2018-12-01T09:56:56.027Z,100876.95
2018-12-01T09:59:22.963Z,100878.45
2018-12-01T10:01:49.863Z,100873.27
2018-12-01T10:04:16.750Z,100870.55
2018-12-01T10:06:43.654Z,100870.87
2018-12-01T10:09:10.551Z,100863.16
2018-12-01T10:11:37.455Z,100856.73
2018-12-01T10:14:04.631Z,100862.62
2018-12-01T10:16:31.953Z,100858.75
2018-12-01T10:18:58.831Z,100862.10
2018-12-01T10:21:25.745Z,100864.78
2018-12-01T10:23:52.638Z,100859.41
2018-12-01T10:26:19.584Z,100862.23
2018-12-01T10:28:46.445Z,100856.14
2018-12-01T10:31:13.356Z,100858.68
2018-12-01T10:33:40.255Z,100859.34
2018-12-01T10:36:07.171Z,100859.34
2018-12-01T10:38:34.136Z,100856.47
2018-12-01T10:41:01.052Z,100855.12
2018-12-01T10:43:28.196Z,100855.61
2018-12-01T10:45:55.087Z,100858.42
2018-12-01T10:48:22.027Z,100858.91
2018-12-01T10:50:48.943Z,100864.28
2018-12-01T10:53:15.898Z,100855.89
2018-12-01T10:55:42.814Z,100861.25
2018-12-01T10:58:12.343Z,100857.89
2018-12-01T11:00:45.709Z,100858.56
2018-12-01T11:03:18.331Z,100857.87
2018-12-01T11:05:45.411Z,100856.34
2018-12-01T11:08:13.539Z,100851.10
2018-12-01T11:10:40.435Z,100852.45
2018-12-01T11:13:07.372Z,100848.48
2018-12-01T11:15:34.298Z,100852.51
2018-12-01T11:18:01.236Z,100843.10
2018-12-01T11:20:28.726Z,100846.27
2018-12-01T11:22:58.049Z,100838.19
2018-12-01T11:25:23.120Z,100845.37
2018-12-01T11:27:50.107Z,100843.69
2018-12-01T11:30:19.364Z,100835.44
2018-12-01T11:32:47.085Z,100839.30
2018-12-01T11:35:14.772Z,100834.95
2018-12-01T11:37:41.699Z,100834.20
2018-12-01T11:40:13.684Z,100822.92
2018-12-01T11:42:40.685Z,100832.50
2018-12-01T11:45:09.830Z,100821.77
2018-12-01T11:47:37.022Z,100825.78
2018-12-01T11:50:08.481Z,100820.56
2018-12-01T11:52:36.516Z,100822.70
2018-12-01T11:55:06.738Z,100823.77
2018-12-01T11:57:34.994Z,100821.41
2018-12-01T12:00:02.912Z,100822.08
2018-12-01T12:02:31.296Z,100819.05
2018-12-01T12:04:59.577Z,100819.78
2018-12-01T12:07:38.840Z,100812.42
2018-12-01T12:10:05.863Z,100810.66
2018-12-01T12:12:33.025Z,100804.59
2018-12-01T12:15:01.134Z,100812.14
2018-12-01T12:17:28.784Z,100816.39
2018-12-01T12:19:55.730Z,100813.34
2018-12-01T12:22:22.645Z,100804.41
2018-12-01T12:24:49.535Z,100806.87
2018-12-01T12:27:16.442Z,100800.13
2018-12-01T12:29:43.368Z,100799.12
2018-12-01T12:32:10.298Z,100792.42
2018-12-01T12:34:37.232Z,100785.04
2018-12-01T12:37:04.258Z,100787.13
2018-12-01T12:39:31.166Z,100781.46
2018-12-01T12:41:58.054Z,100785.49
2018-12-01T12:44:24.971Z,100788.84
2018-12-01T12:46:51.871Z,100794.34
2018-12-01T12:49:18.783Z,100796.36
2018-12-01T12:51:45.722Z,100791.45
2018-12-01T12:54:12.647Z,100792.31
2018-12-01T12:56:39.560Z,100798.81
2018-12-01T12:59:06.455Z,100798.11
2018-12-01T13:01:33.534Z,100791.66
2018-12-01T13:04:00.532Z,100794.54
2018-12-01T13:06:27.446Z,100797.25
2018-12-01T13:08:54.338Z,100792.53
2018-12-01T13:11:21.247Z,100789.48
2018-12-01T13:13:48.146Z,100790.50
2018-12-01T13:16:15.039Z,100791.05
2018-12-01T13:18:41.926Z,100797.11
2018-12-01T13:21:08.836Z,100794.56
2018-12-01T13:23:35.731Z,100804.17
2018-12-01T13:26:02.663Z,100799.28
2018-12-01T13:28:29.567Z,100799.47
2018-12-01T13:30:57.755Z,100805.84
2018-12-01T13:33:31.550Z,100802.27
2018-12-01T13:35:58.477Z,100795.88
2018-12-01T13:38:25.828Z,100798.84
2018-12-01T13:40:52.739Z,100798.84
2018-12-01T13:43:19.659Z,100795.83
2018-12-01T13:45:46.582Z,100797.17
2018-12-01T13:48:13.486Z,100799.70
2018-12-01T13:50:40.398Z,100799.56
2018-12-01T13:53:09.163Z,100792.84
2018-12-01T13:55:36.051Z,100796.34
2018-12-01T13:58:02.980Z,100802.74
2018-12-01T14:00:29.875Z,100806.09
2018-12-01T14:02:56.795Z,100806.91
2018-12-01T14:05:23.699Z,100809.00
2018-12-01T14:07:50.617Z,100802.77
2018-12-01T14:10:19.331Z,100804.11
2018-12-01T14:12:47.491Z,100803.16
2018-12-01T14:15:17.408Z,100805.52
2018-12-01T14:17:44.350Z,100807.34
2018-12-01T14:20:14.804Z,100795.80
2018-12-01T14:22:42.159Z,100788.73
2018-12-01T14:25:10.020Z,100794.47
2018-12-01T14:27:37.379Z,100798.89
2018-12-01T14:30:07.902Z,100790.84
2018-12-01T14:32:34.902Z,100785.14
2018-12-01T14:35:02.132Z,100791.06
2018-12-01T14:37:29.049Z,100790.61
2018-12-01T14:39:55.948Z,100794.31
2018-12-01T14:42:22.831Z,100792.15
2018-12-01T14:44:49.741Z,100798.02
2018-12-01T14:47:16.632Z,100795.53
2018-12-01T14:49:43.523Z,100795.67
2018-12-01T14:52:10.437Z,100787.82
2018-12-01T14:54:37.354Z,100788.22
2018-12-01T14:57:04.726Z,100794.13
2018-12-01T14:59:31.655Z,100791.80
2018-12-01T15:01:58.583Z,100787.29
2018-12-01T15:04:25.495Z,100780.73
2018-12-01T15:06:52.395Z,100777.36
2018-12-01T15:09:19.307Z,100770.99
2018-12-01T15:11:46.212Z,100770.70
2018-12-01T15:14:13.118Z,100764.66
2018-12-01T15:16:40.039Z,100771.70
2018-12-01T15:19:07.050Z,100766.70
2018-12-01T15:21:33.922Z,100763.33
2018-12-01T15:24:00.840Z,100765.40
2018-12-01T15:26:27.764Z,100759.37
2018-12-01T15:28:54.776Z,100760.05
2018-12-01T15:31:21.761Z,100755.36
2018-12-01T15:33:48.787Z,100759.43
2018-12-01T15:36:15.708Z,100752.21
2018-12-01T15:38:42.695Z,100752.59
2018-12-01T15:41:09.630Z,100749.09
2018-12-01T15:43:36.570Z,100741.19
2018-12-01T15:46:03.497Z,100728.45
2018-12-01T15:48:30.402Z,100726.95
2018-12-01T15:50:57.332Z,100727.16
2018-12-01T15:53:24.239Z,100727.83
2018-12-01T15:55:51.160Z,100724.67
2018-12-01T15:58:18.065Z,100728.70
2018-12-01T16:00:44.994Z,100726.20
2018-12-01T16:03:11.900Z,100726.02
2018-12-01T16:05:38.835Z,100721.66
2018-12-01T16:08:07.117Z,100720.98
2018-12-01T16:10:34.037Z,100716.14
2018-12-01T16:13:33.056Z,100722.67
2018-12-01T16:16:01.355Z,100720.84
2018-12-01T16:18:28.283Z,100718.50
2018-12-01T16:20:55.219Z,100714.66
2018-12-01T16:23:22.136Z,100711.97
2018-12-01T16:25:49.047Z,100713.28
2018-12-01T16:28:15.931Z,100705.06
2018-12-01T16:30:43.955Z,100706.89
2018-12-01T16:33:12.528Z,100708.23
2018-12-01T16:35:39.430Z,100702.86
2018-12-01T16:38:08.069Z,100688.11
2018-12-01T16:41:25.348Z,100678.38
2018-12-01T16:43:52.241Z,100685.94
2018-12-01T16:46:19.161Z,100680.39
2018-12-01T16:48:46.075Z,100629.40
2018-12-01T16:51:13.006Z,100672.67
2018-12-01T16:53:39.908Z,100674.69
2018-12-01T16:56:06.806Z,100672.02
2018-12-01T16:58:33.734Z,100668.98
2018-12-01T17:01:00.633Z,100664.77
2018-12-01T17:03:27.546Z,100661.27
2018-12-01T17:05:56.015Z,100663.08
2018-12-01T17:08:22.914Z,100666.96
2018-12-01T17:10:49.848Z,100663.08
2018-12-01T17:13:16.750Z,100653.69
2018-12-01T17:15:43.682Z,100658.23
2018-12-01T17:18:10.587Z,100657.71
2018-12-01T17:20:37.476Z,100651.33
2018-12-01T17:23:08.004Z,100652.33
2018-12-01T17:25:34.923Z,100651.67
2018-12-01T17:28:01.856Z,100649.12
2018-12-01T17:30:29.143Z,100648.45
2018-12-01T17:32:57.231Z,100641.06
2018-12-01T17:35:26.116Z,100642.73
2018-12-01T17:37:54.205Z,100638.52
2018-12-01T17:40:23.997Z,100636.63
2018-12-01T17:42:52.703Z,100639.02
2018-12-01T17:45:19.629Z,100635.46
2018-12-01T17:47:46.559Z,100632.25
2018-12-01T17:50:14.568Z,100635.11
2018-12-01T17:52:44.079Z,100638.27
2018-12-01T17:55:12.343Z,100629.20
2018-12-01T17:57:39.286Z,100618.08
2018-12-01T18:00:10.142Z,100617.91
2018-12-01T18:02:37.059Z,100614.22
2018-12-01T18:05:05.483Z,100607.31
2018-12-01T18:07:32.387Z,100606.81
2018-12-01T18:12:43.872Z,100604.73
2018-12-01T18:15:13.935Z,100611.59
2018-12-01T18:17:40.867Z,100604.25
2018-12-01T18:20:14.872Z,100604.55
2018-12-01T18:22:41.875Z,100608.58
2018-12-01T18:25:08.967Z,100608.62
2018-12-01T18:27:36.233Z,100613.81
2018-12-01T18:30:03.738Z,100613.48
2018-12-01T18:32:30.653Z,100617.37
2018-12-01T18:34:57.557Z,100617.48
2018-12-01T18:37:24.427Z,100620.17
2018-12-01T18:39:51.334Z,100614.33
2018-12-01T18:42:18.218Z,100615.67
2018-12-01T18:44:45.115Z,100612.80
2018-12-01T18:47:12.010Z,100605.40
2018-12-01T18:49:38.910Z,100622.34
2018-12-01T18:52:05.839Z,100606.74
2018-12-01T18:54:33.093Z,100608.77
2018-12-01T18:56:59.992Z,100609.97
2018-12-01T18:59:26.898Z,100608.16
2018-12-01T19:01:53.789Z,100610.84
2018-12-01T19:04:20.695Z,100608.32
2018-12-01T19:06:47.748Z,100596.92
2018-12-01T19:09:14.660Z,100599.47
2018-12-01T19:11:41.572Z,100592.23
2018-12-01T19:14:08.462Z,100602.02
2018-12-01T19:16:35.362Z,100594.78
2018-12-01T19:19:02.254Z,100592.73
2018-12-01T19:21:29.155Z,100589.37
2018-12-01T19:23:56.086Z,100593.55
2018-12-01T19:26:22.984Z,100584.02
2018-12-01T19:28:50.245Z,100580.98
2018-12-01T19:31:17.179Z,100581.45
2018-12-01T19:33:44.090Z,100574.07
2018-12-01T19:36:11.036Z,100575.06
2018-12-01T19:38:37.959Z,100572.02
2018-12-01T19:41:04.979Z,100571.17
2018-12-01T19:43:31.899Z,100570.02
2018-12-01T19:45:58.815Z,100573.74
2018-12-01T19:48:25.744Z,100567.22
2018-12-01T19:50:52.688Z,100559.33
2018-12-01T19:53:19.618Z,100559.88
2018-12-01T19:55:47.871Z,100551.03
2018-12-01T19:58:18.284Z,100551.88
2018-12-01T20:00:49.751Z,100545.33
2018-12-01T20:03:18.027Z,100547.88
2018-12-01T20:05:44.954Z,100537.63
2018-12-01T20:08:12.963Z,100532.45
2018-12-01T20:10:48.611Z,100526.27
2018-12-01T20:13:46.562Z,100517.69
2018-12-01T20:16:20.903Z,100508.81
2018-12-01T20:18:47.854Z,100499.58
2018-12-01T20:21:14.767Z,100490.84
2018-12-01T20:23:41.683Z,100486.48
2018-12-01T20:26:08.590Z,100485.61
2018-12-01T20:28:35.502Z,100478.56
2018-12-01T20:31:02.419Z,100476.27
2018-12-01T20:33:29.335Z,100467.36
2018-12-01T20:36:08.611Z,100461.89
2018-12-01T20:38:40.938Z,100457.89
2018-12-01T20:41:07.838Z,100459.75
2018-12-01T20:43:34.758Z,100458.61
2018-12-01T20:46:01.671Z,100454.61
2018-12-01T20:48:29.179Z,100452.61
2018-12-01T20:50:56.217Z,100452.14
2018-12-01T20:53:23.143Z,100450.34
2018-12-01T20:55:52.664Z,100449.02
2018-12-01T21:00:53.844Z,100437.83
2018-12-01T21:03:20.758Z,100435.14
2018-12-01T21:05:47.725Z,100429.61
2018-12-01T21:08:14.655Z,100428.98
2018-12-01T21:10:46.495Z,100430.32
2018-12-01T21:13:13.397Z,100422.11
2018-12-01T21:15:40.317Z,100424.66
2018-12-01T21:18:07.246Z,100424.30
2018-12-01T21:20:34.162Z,100422.95
2018-12-01T21:23:01.085Z,100419.59
2018-12-01T21:25:28.226Z,100412.03
2018-12-01T21:27:56.959Z,100409.19
2018-12-01T21:30:24.935Z,100397.94
2018-12-01T21:32:53.958Z,100397.41
2018-12-01T21:35:20.906Z,100393.72
2018-12-01T21:37:47.819Z,100399.08
2018-12-01T21:40:17.035Z,100399.08
2018-12-01T21:42:44.070Z,100395.58
2018-12-01T21:45:12.077Z,100387.66
2018-12-01T21:47:38.994Z,100372.42
2018-12-01T21:50:12.255Z,100372.42
2018-12-01T21:52:39.202Z,100362.23
2018-12-01T21:55:08.031Z,100362.70
2018-12-01T21:57:34.940Z,100359.69
2018-12-01T22:00:01.935Z,100355.99
2018-12-01T22:02:28.833Z,100351.64
2018-12-01T22:04:55.760Z,100350.11
2018-12-01T22:07:22.672Z,100341.73
2018-12-01T22:09:49.590Z,100344.61
2018-12-01T22:12:16.549Z,100342.28
2018-12-01T22:14:43.468Z,100338.09
2018-12-01T22:17:10.379Z,100336.75
2018-12-01T22:22:11.088Z,100334.69
2018-12-01T22:24:38.021Z,100333.75
2018-12-01T22:27:04.936Z,100331.06
2018-12-01T22:29:31.844Z,100328.18
2018-12-01T22:31:58.775Z,100323.02
2018-12-01T22:34:26.607Z,100313.95
2018-12-01T22:36:52.662Z,100319.61
2018-12-01T22:39:19.576Z,100319.81
2018-12-01T22:41:46.506Z,100315.98
2018-12-01T22:44:13.414Z,100309.60
2018-12-01T22:46:40.374Z,100306.39
2018-12-01T22:49:07.304Z,100305.25
2018-12-01T22:51:34.257Z,100308.26
2018-12-01T22:54:01.156Z,100298.15
2018-12-01T22:56:28.938Z,100302.56
2018-12-01T22:58:55.022Z,100294.84
2018-12-01T23:01:21.999Z,100294.45
2018-12-01T23:03:48.975Z,100296.67
2018-12-01T23:06:15.895Z,100298.15
2018-12-01T23:08:42.802Z,100289.25
2018-12-01T23:11:09.756Z,100294.45
2018-12-01T23:13:36.676Z,100279.70
2018-12-01T23:16:03.633Z,100286.80
2018-12-01T23:18:30.550Z,100277.08
2018-12-01T23:20:57.459Z,100267.03
2018-12-01T23:23:24.374Z,100273.65
2018-12-01T23:25:51.271Z,100263.15
2018-12-01T23:28:18.204Z,100256.77
2018-12-01T23:30:49.512Z,100255.79
2018-12-01T23:33:19.038Z,100245.06
2018-12-01T23:35:45.973Z,100245.98
2018-12-01T23:38:12.929Z,100240.06
2018-12-01T23:40:40.359Z,100235.05
2018-12-01T23:43:07.381Z,100235.38
2018-12-01T23:45:34.727Z,100222.30
2018-12-01T23:48:01.685Z,100217.79
2018-12-01T23:50:28.599Z,100213.44
2018-12-01T23:52:58.899Z,100200.52
2018-12-01T23:55:25.825Z,100201.08
2018-12-01T23:57:52.750Z,100195.88
